Time;durP1;ratioP1;P1;durP2;ratioP2;P2;SDS_P1;SDS_P2;PMS_P1;PMS_P2;Temp;Humidity;BMP_temperature;BMP_pressure;BME280_temperature;BME280_humidity;BME280_pressure;Samples;Min_cycle;Max_cycle;Signal;HPM_P1;HPM_P2
2022/03/12 00:01:47;;;;;;;11.80;6.47;;;;;;;-0.51;85.20;96488.31;5050663;27;101909;-64
2022/03/12 00:04:16;;;;;;;9.53;6.10;;;;;;;-0.51;85.37;96494.34;5050565;27;104736;-64
2022/03/12 00:06:44;;;;;;;9.80;7.30;;;;;;;-0.40;93.57;96493.88;5049664;27;105269;-64
2022/03/12 00:09:11;;;;;;;11.70;7.03;;;;;;;-0.38;91.19;96502.38;5050405;27;101825;-64
2022/03/12 00:11:51;;;;;;;12.80;7.47;;;;;;;-0.33;91.84;96505.22;5050553;27;104819;-64
2022/03/12 00:14:21;;;;;;;9.17;6.80;;;;;;;-0.47;89.44;96501.63;5049566;27;105701;-64
2022/03/12 00:16:48;;;;;;;9.70;6.63;;;;;;;-0.45;86.68;96495.44;5050254;27;101740;-64
2022/03/12 00:19:17;;;;;;;8.60;6.40;;;;;;;-0.39;88.39;96497.31;5050098;27;105146;-64
2022/03/12 00:21:44;;;;;;;12.87;7.07;;;;;;;-0.64;88.33;96504.59;5053087;27;105740;-64
2022/03/12 00:24:15;;;;;;;8.27;6.60;;;;;;;-0.71;90.44;96506.28;5050331;27;104911;-64
2022/03/12 00:26:43;;;;;;;12.03;6.90;;;;;;;-0.73;90.21;96499.66;5049351;27;105289;-64
2022/03/12 00:29:14;;;;;;;9.67;7.23;;;;;;;-0.79;93.78;96511.59;5049967;27;101845;-64
2022/03/12 00:31:42;;;;;;;10.50;7.80;;;;;;;-0.83;95.00;96502.50;5050235;27;105242;-64
2022/03/12 00:34:09;;;;;;;10.10;7.57;;;;;;;-0.84;100.00;96500.88;5049483;27;103822;-64
2022/03/12 00:36:39;;;;;;;9.60;7.77;;;;;;;-0.81;98.60;96500.53;5049796;27;102082;-64
2022/03/12 00:39:09;;;;;;;9.43;7.53;;;;;;;-0.80;97.46;96503.94;5050197;27;105161;-64
2022/03/12 00:41:38;;;;;;;10.30;7.30;;;;;;;-0.86;96.19;96508.06;5049334;27;104997;-64
2022/03/12 00:44:05;;;;;;;10.27;7.50;;;;;;;-0.98;94.91;96509.50;5054897;27;101660;-64
2022/03/12 00:46:32;;;;;;;9.63;6.70;;;;;;;-1.19;97.14;96522.38;5049146;27;105409;-64
2022/03/12 00:49:02;;;;;;;8.67;6.77;;;;;;;-1.22;99.91;96517.50;5049743;27;101928;-64
2022/03/12 00:51:29;;;;;;;9.37;6.73;;;;;;;-1.17;99.31;96516.97;5049626;27;105573;-64
2022/03/12 00:53:57;;;;;;;8.83;6.90;;;;;;;-1.33;100.00;96530.94;5049161;27;105406;-64
2022/03/12 00:56:24;;;;;;;7.83;6.30;;;;;;;-1.24;99.48;96529.09;5049536;27;102264;-63
2022/03/12 00:58:51;;;;;;;9.77;6.57;;;;;;;-1.25;98.65;96533.53;5049471;27;105288;-63
2022/03/12 01:01:18;;;;;;;8.97;6.90;;;;;;;-1.19;97.96;96538.03;5049084;27;105035;-64
2022/03/12 01:03:45;;;;;;;10.43;6.67;;;;;;;-1.36;97.49;96538.31;5053246;27;101804;-64
2022/03/12 01:06:14;;;;;;;10.23;6.80;;;;;;;-1.27;100.00;96538.06;5049030;27;105438;-63
2022/03/12 01:08:42;;;;;;;9.80;6.90;;;;;;;-1.21;97.36;96540.00;5049622;27;101861;-63
2022/03/12 01:11:11;;;;;;;10.37;6.90;;;;;;;-1.23;98.33;96551.56;5048975;27;104431;-63
2022/03/12 01:13:39;;;;;;;10.63;6.90;;;;;;;-1.18;100.00;96539.66;5048611;27;105515;-64
2022/03/12 01:16:08;;;;;;;12.10;7.97;;;;;;;-1.18;100.00;96544.03;5049290;27;101847;-63
2022/03/12 01:18:38;;;;;;;12.70;7.97;;;;;;;-1.20;100.00;96543.41;5049541;27;105207;-63
2022/03/12 01:21:09;;;;;;;11.27;7.70;;;;;;;-1.22;100.00;96553.22;5048719;27;105007;-64
2022/03/12 01:23:36;;;;;;;9.50;6.83;;;;;;;-1.22;100.00;96555.84;5049225;27;102107;-63
2022/03/12 01:26:03;;;;;;;10.57;7.33;;;;;;;-1.19;100.00;96551.06;5052136;27;105305;-63
2022/03/12 01:28:32;;;;;;;9.93;7.20;;;;;;;-1.31;100.00;96542.00;5049081;27;101900;-63
2022/03/12 01:31:00;;;;;;;9.37;7.37;;;;;;;-1.23;100.00;96547.19;5050482;27;104135;-63
2022/03/12 01:33:28;;;;;;;10.83;7.40;;;;;;;-1.59;100.00;96553.94;5049905;27;102491;-63
2022/03/12 01:35:55;;;;;;;12.33;7.63;;;;;;;-1.56;100.00;96537.13;5050391;27;102046;-63
2022/03/12 01:38:30;;;;;;;9.27;6.90;;;;;;;-1.58;100.00;96544.31;5049029;27;104188;-63
2022/03/12 01:41:02;;;;;;;10.30;6.97;;;;;;;-1.78;100.00;96541.34;5048439;27;105553;-63
2022/03/12 01:43:31;;;;;;;10.30;7.03;;;;;;;-1.55;100.00;96547.38;5049060;27;101882;-63
2022/03/12 01:46:01;;;;;;;8.83;6.90;;;;;;;-1.60;100.00;96541.88;5048442;27;105491;-63
2022/03/12 01:48:29;;;;;;;9.13;6.57;;;;;;;-1.77;100.00;96547.34;5051867;27;104986;-63
2022/03/12 01:50:57;;;;;;;10.77;7.43;;;;;;;-2.05;100.00;96543.56;5049169;27;104755;-63
2022/03/12 01:53:26;;;;;;;9.37;7.43;;;;;;;-2.11;100.00;96550.28;5049588;27;102603;-63
2022/03/12 01:55:55;;;;;;;9.10;6.60;;;;;;;-2.14;100.00;96544.59;5048627;27;101900;-63
2022/03/12 01:58:23;;;;;;;9.80;7.20;;;;;;;-1.99;100.00;96546.31;5050087;27;103014;-63
2022/03/12 02:00:53;;;;;;;9.37;6.97;;;;;;;-2.13;100.00;96544.41;5048239;27;105365;-63
2022/03/12 02:03:23;;;;;;;10.33;7.53;;;;;;;-2.16;100.00;96539.53;5048965;27;102190;-63
2022/03/12 02:05:51;;;;;;;9.77;7.77;;;;;;;-2.16;100.00;96536.94;5048834;27;105568;-63
2022/03/12 02:08:18;;;;;;;10.50;7.40;;;;;;;-2.12;100.00;96540.00;5049489;27;102698;-63
2022/03/12 02:10:47;;;;;;;8.57;6.77;;;;;;;-2.24;100.00;96533.56;5052142;27;101952;-63
2022/03/12 02:13:15;;;;;;;8.30;6.77;;;;;;;-2.53;100.00;96528.09;5047965;27;106099;-63
2022/03/12 02:15:42;;;;;;;8.17;6.60;;;;;;;-2.74;100.00;96525.22;5048491;27;101850;-63
2022/03/12 02:18:10;;;;;;;8.87;6.57;;;;;;;-2.74;100.00;96523.41;5048572;27;105078;-63
2022/03/12 02:20:39;;;;;;;10.13;7.50;;;;;;;-2.67;100.00;96536.59;5048094;27;105149;-63
2022/03/12 02:23:08;;;;;;;11.73;7.10;;;;;;;-2.73;100.00;96524.25;5048536;27;101837;-63
2022/03/12 02:25:37;;;;;;;9.37;6.90;;;;;;;-2.54;100.00;96531.66;5051987;27;105151;-63
2022/03/12 02:28:15;;;;;;;8.47;6.60;;;;;;;-2.39;100.00;96530.84;5051330;27;105455;-63
2022/03/12 02:30:47;;;;;;;10.27;6.83;;;;;;;-2.28;100.00;96535.69;5051998;27;101865;-63
2022/03/12 02:33:14;;;;;;;11.20;6.93;;;;;;;-2.26;100.00;96533.72;5054866;27;105325;-63
2022/03/12 02:35:47;;;;;;;8.80;7.13;;;;;;;-2.18;100.00;96538.88;5052122;27;101964;-63
2022/03/12 02:38:17;;;;;;;10.70;7.20;;;;;;;-2.10;100.00;96538.88;5051790;27;105571;-63
2022/03/12 02:40:48;;;;;;;11.43;7.60;;;;;;;-2.10;100.00;96530.22;5051449;27;105665;-63
2022/03/12 02:43:15;;;;;;;9.37;6.60;;;;;;;-2.45;100.00;96531.50;5051778;27;101775;-63
2022/03/12 02:45:42;;;;;;;8.40;7.00;;;;;;;-2.34;100.00;96530.31;5051598;27;105225;-63
2022/03/12 02:48:09;;;;;;;9.70;7.13;;;;;;;-2.54;100.00;96536.88;5051176;27;105505;-63
2022/03/12 02:50:36;;;;;;;8.60;6.80;;;;;;;-2.58;100.00;96531.19;5051699;27;102012;-63
2022/03/12 02:53:03;;;;;;;9.97;7.23;;;;;;;-2.46;100.00;96531.66;5050889;27;103812;-63
2022/03/12 02:55:34;;;;;;;8.27;6.80;;;;;;;-2.42;100.00;96533.75;5054502;27;105610;-63
2022/03/12 02:58:09;;;;;;;9.33;7.07;;;;;;;-2.37;100.00;96528.88;5051671;27;105204;-63
2022/03/12 03:00:37;;;;;;;11.03;7.67;;;;;;;-2.41;100.00;96534.59;5051023;27;105648;-63
2022/03/12 03:03:05;;;;;;;9.87;6.83;;;;;;;-2.46;100.00;96529.88;5051664;27;101788;-63
2022/03/12 03:05:45;;;;;;;10.87;7.40;;;;;;;-2.40;100.00;96534.41;5051331;27;105338;-63
2022/03/12 03:08:15;;;;;;;13.00;8.50;;;;;;;-2.37;100.00;96533.25;5050801;27;105503;-63
2022/03/12 03:10:44;;;;;;;12.57;8.13;;;;;;;-2.60;100.00;96524.53;5051451;27;102144;-63
2022/03/12 03:13:45;;;;;;;13.20;9.30;;;;;;;-2.76;100.00;96538.41;5051379;27;105379;-63
2022/03/12 03:16:19;;;;;;;11.60;7.87;;;;;;;-2.57;100.00;96545.03;5054015;27;105632;-63
2022/03/12 03:18:51;;;;;;;11.70;8.83;;;;;;;-2.67;100.00;96537.38;5051461;27;105147;-63
2022/03/12 03:21:19;;;;;;;11.07;7.43;;;;;;;-2.54;100.00;96542.09;5050190;27;105372;-63
2022/03/12 03:23:47;;;;;;;11.13;7.73;;;;;;;-2.43;100.00;96539.97;5051333;27;102194;-63
2022/03/12 03:26:15;;;;;;;9.80;7.43;;;;;;;-2.37;100.00;96544.50;5051198;27;103574;-63
2022/03/12 03:28:44;;;;;;;11.17;7.13;;;;;;;-2.51;100.00;96536.56;5050444;27;106754;-63
2022/03/12 03:31:11;;;;;;;9.20;7.17;;;;;;;-2.65;100.00;96543.25;5050842;27;102356;-63
2022/03/12 03:33:38;;;;;;;11.20;7.07;;;;;;;-2.73;100.00;96545.84;5051358;27;103726;-63
2022/03/12 03:36:05;;;;;;;11.87;7.50;;;;;;;-2.79;100.00;96561.34;5049957;27;104366;-63
2022/03/12 03:38:32;;;;;;;12.53;7.97;;;;;;;-2.69;100.00;96560.16;5054564;27;102341;-63
2022/03/12 03:40:59;;;;;;;11.47;7.83;;;;;;;-2.52;100.00;96559.16;5050369;27;105595;-63
2022/03/12 03:43:26;;;;;;;14.33;8.27;;;;;;;-2.55;100.00;96562.13;5050816;27;101872;-63
2022/03/12 03:45:58;;;;;;;13.00;8.33;;;;;;;-2.46;100.00;96561.09;5050442;27;105255;-63
2022/03/12 03:48:26;;;;;;;11.57;8.50;;;;;;;-2.55;100.00;96561.28;5051804;27;102716;-63
2022/03/12 03:50:55;;;;;;;10.30;7.90;;;;;;;-2.69;100.00;96562.78;5051976;27;101889;-63
2022/03/12 03:53:25;;;;;;;9.27;7.17;;;;;;;-2.69;100.00;96562.78;5050375;27;105498;-63
2022/03/12 03:55:53;;;;;;;11.33;8.00;;;;;;;-2.66;100.00;96559.84;5051654;27;102571;-63
2022/03/12 03:58:21;;;;;;;10.80;8.10;;;;;;;-2.57;100.00;96558.06;5050585;27;101920;-63
2022/03/12 04:00:57;;;;;;;13.97;7.93;;;;;;;-2.47;100.00;96559.47;5053311;27;105770;-63
2022/03/12 04:03:25;;;;;;;9.03;7.50;;;;;;;-2.40;100.00;96565.63;5052003;27;101759;-62
2022/03/12 04:05:52;;;;;;;9.57;7.47;;;;;;;-2.39;100.00;96559.47;5050551;27;103547;-63
2022/03/12 04:08:21;;;;;;;10.10;7.70;;;;;;;-2.34;100.00;96559.78;5049848;27;105967;-63
2022/03/12 04:10:48;;;;;;;10.00;7.70;;;;;;;-2.38;100.00;96566.31;5050273;27;101855;-63
2022/03/12 04:13:18;;;;;;;11.07;7.77;;;;;;;-2.36;100.00;96573.97;5052010;27;101676;-62
2022/03/12 04:15:45;;;;;;;11.67;7.40;;;;;;;-2.40;100.00;96570.06;5049714;27;104490;-63
2022/03/12 04:18:15;;;;;;;11.07;6.87;;;;;;;-2.78;100.00;96573.38;5050057;27;101877;-63
2022/03/12 04:20:47;;;;;;;11.33;7.73;;;;;;;-2.98;100.00;96580.69;5050429;27;104940;-63
2022/03/12 04:23:18;;;;;;;10.47;7.63;;;;;;;-2.84;100.00;96576.63;5053241;27;105211;-63
2022/03/12 04:25:46;;;;;;;9.03;6.93;;;;;;;-2.77;100.00;96572.38;5050238;27;105546;-63
2022/03/12 04:28:13;;;;;;;11.03;7.90;;;;;;;-2.84;100.00;96571.41;5049451;27;106672;-62
2022/03/12 04:30:41;;;;;;;9.73;6.87;;;;;;;-2.77;100.00;96574.97;5050208;27;101998;-63
2022/03/12 04:33:11;;;;;;;10.53;7.63;;;;;;;-2.72;100.00;96577.91;5050039;27;105541;-63
2022/03/12 04:35:41;;;;;;;9.87;7.10;;;;;;;-2.73;100.00;96579.69;5050658;27;102528;-62
2022/03/12 04:38:09;;;;;;;16.17;8.20;;;;;;;-2.70;100.00;96579.38;5049930;27;101793;-63
2022/03/12 04:40:39;;;;;;;8.90;7.20;;;;;;;-2.72;100.00;96583.13;5050197;27;105573;-62
2022/03/12 04:43:07;;;;;;;11.00;7.23;;;;;;;-3.00;100.00;96592.22;5049464;27;105608;-62
2022/03/12 04:45:34;;;;;;;10.60;7.50;;;;;;;-2.81;100.00;96587.50;5053083;27;101783;-62
2022/03/12 04:48:02;;;;;;;10.83;7.63;;;;;;;-2.83;100.00;96586.06;5050100;27;102837;-62
2022/03/12 04:50:28;;;;;;;9.47;7.20;;;;;;;-2.93;100.00;96593.19;5049679;27;102039;-62
2022/03/12 04:52:59;;;;;;;11.70;7.70;;;;;;;-3.21;100.00;96592.72;5049780;27;105087;-62
2022/03/12 04:55:28;;;;;;;9.57;6.90;;;;;;;-3.07;100.00;96594.66;5049367;27;104666;-63
2022/03/12 04:57:55;;;;;;;9.43;7.40;;;;;;;-2.97;100.00;96602.28;5049656;27;101887;-63
2022/03/12 05:00:26;;;;;;;11.87;6.93;;;;;;;-2.93;100.00;96604.44;5049593;27;105056;-62
2022/03/12 05:02:55;;;;;;;11.53;7.87;;;;;;;-2.89;100.00;96600.50;5049085;27;104345;-62
2022/03/12 05:05:23;;;;;;;9.87;7.30;;;;;;;-3.07;100.00;96602.47;5049429;27;102026;-63
2022/03/12 05:07:51;;;;;;;9.50;7.37;;;;;;;-3.07;100.00;96601.66;5052479;27;105075;-62
2022/03/12 05:10:19;;;;;;;9.93;7.03;;;;;;;-3.13;100.00;96602.28;5049641;27;101851;-62
2022/03/12 05:12:48;;;;;;;10.13;7.17;;;;;;;-3.49;100.00;96600.94;5049724;27;105360;-62
2022/03/12 05:15:17;;;;;;;11.47;7.47;;;;;;;-3.55;100.00;96604.97;5048766;27;106463;-62
2022/03/12 05:17:49;;;;;;;11.53;7.93;;;;;;;-3.40;100.00;96605.97;5049189;27;101685;-62
2022/03/12 05:20:21;;;;;;;10.80;7.63;;;;;;;-3.43;100.00;96611.53;5049384;27;103526;-63
2022/03/12 05:22:48;;;;;;;10.10;7.37;;;;;;;-3.33;100.00;96608.78;5048764;27;105588;-63
2022/03/12 05:25:16;;;;;;;10.97;7.83;;;;;;;-3.11;100.00;96616.75;5049141;27;101923;-63
2022/03/12 05:27:45;;;;;;;10.07;7.33;;;;;;;-3.19;100.00;96618.53;5052056;27;104838;-62
2022/03/12 05:30:12;;;;;;;12.90;7.87;;;;;;;-3.48;100.00;96629.38;5049271;27;101991;-62
2022/03/12 05:32:39;;;;;;;10.53;7.43;;;;;;;-3.48;100.00;96616.38;5050351;27;102461;-62
2022/03/12 05:35:09;;;;;;;12.63;8.67;;;;;;;-3.39;100.00;96618.00;5048495;27;105843;-63
2022/03/12 05:37:37;;;;;;;12.03;8.17;;;;;;;-3.39;100.00;96623.19;5049215;27;101887;-62
2022/03/12 05:40:05;;;;;;;13.07;8.53;;;;;;;-3.35;100.00;96615.91;5048847;27;105120;-62
2022/03/12 05:42:32;;;;;;;10.07;7.43;;;;;;;-3.35;100.00;96623.69;5048548;27;105321;-62
2022/03/12 05:45:02;;;;;;;12.60;8.50;;;;;;;-3.27;100.00;96627.13;5048634;27;102108;-62
2022/03/12 05:47:35;;;;;;;11.10;8.30;;;;;;;-3.26;100.00;96626.19;5048994;27;104898;-62
2022/03/12 05:50:03;;;;;;;13.43;9.40;;;;;;;-3.39;100.00;96628.41;5051734;27;105792;-62
2022/03/12 05:52:31;;;;;;;14.20;9.60;;;;;;;-3.51;100.00;96624.47;5048428;27;105642;-62
2022/03/12 05:54:57;;;;;;;16.20;10.10;;;;;;;-3.25;100.00;96620.00;5048277;27;105142;-62
2022/03/12 05:57:24;;;;;;;14.50;10.00;;;;;;;-3.25;100.00;96625.19;5048107;27;101942;-62
2022/03/12 05:59:51;;;;;;;15.40;9.87;;;;;;;-3.19;100.00;96629.75;5051516;27;104065;-62
2022/03/12 06:02:20;;;;;;;13.53;9.10;;;;;;;-3.11;100.00;96624.56;5051851;27;105120;-63
2022/03/12 06:04:47;;;;;;;12.23;9.57;;;;;;;-3.10;100.00;96631.41;5052444;27;101840;-63
2022/03/12 06:07:15;;;;;;;14.60;9.43;;;;;;;-3.04;100.00;96638.56;5052334;27;105170;-63
2022/03/12 06:09:43;;;;;;;12.87;9.00;;;;;;;-2.97;100.00;96643.91;5051911;27;105300;-63
2022/03/12 06:12:17;;;;;;;13.03;9.20;;;;;;;-2.89;100.00;96644.72;5055736;27;101791;-63
2022/03/12 06:14:50;;;;;;;13.73;10.03;;;;;;;-2.94;100.00;96643.59;5051588;27;105455;-62
2022/03/12 06:17:19;;;;;;;12.43;9.53;;;;;;;-2.90;100.00;96645.72;5051202;27;102286;-63
2022/03/12 06:19:48;;;;;;;12.47;9.27;;;;;;;-2.89;100.00;96647.34;5052032;27;105662;-62
2022/03/12 06:22:15;;;;;;;13.70;9.17;;;;;;;-2.94;100.00;96648.81;5051533;27;103733;-62
2022/03/12 06:24:41;;;;;;;12.13;9.03;;;;;;;-2.70;100.00;96654.84;5052241;27;102222;-62
2022/03/12 06:27:09;;;;;;;14.63;10.00;;;;;;;-2.62;100.00;96665.25;5051963;27;105187;-62
2022/03/12 06:29:36;;;;;;;13.60;9.90;;;;;;;-2.59;100.00;96674.53;5050313;27;105848;-62
2022/03/12 06:32:04;;;;;;;14.37;10.23;;;;;;;-2.64;100.00;96676.78;5051969;27;101862;-62
2022/03/12 06:34:34;;;;;;;13.70;9.97;;;;;;;-2.69;100.00;96673.88;5053775;27;105019;-62
2022/03/12 06:37:04;;;;;;;14.50;10.27;;;;;;;-2.55;100.00;96665.41;5050774;27;101787;-62
2022/03/12 06:39:30;;;;;;;14.67;10.73;;;;;;;-2.28;100.00;96673.72;5050608;27;105282;-62
2022/03/12 06:41:58;;;;;;;16.27;10.27;;;;;;;-2.11;100.00;96674.50;5051203;27;102669;-61
2022/03/12 06:44:27;;;;;;;18.87;11.13;;;;;;;-1.96;100.00;96676.28;5050247;27;101763;-62
2022/03/12 06:46:54;;;;;;;16.33;10.23;;;;;;;-2.04;100.00;96671.06;5050618;27;104935;-62
2022/03/12 06:49:21;;;;;;;12.97;9.73;;;;;;;-1.94;100.00;96679.50;5050285;27;105474;-62
2022/03/12 06:51:48;;;;;;;13.63;10.23;;;;;;;-1.81;100.00;96685.00;5051228;27;101966;-62
2022/03/12 06:54:16;;;;;;;16.97;10.00;;;;;;;-1.64;100.00;96683.97;5050734;27;105013;-62
2022/03/12 06:56:43;;;;;;;15.53;9.90;;;;;;;-1.45;100.00;96691.41;5053733;27;105094;-62
2022/03/12 06:59:10;;;;;;;14.60;10.33;;;;;;;-1.38;100.00;96694.97;5051295;27;105278;-62
2022/03/12 07:01:37;;;;;;;15.67;10.50;;;;;;;-1.34;100.00;96696.25;5049990;27;105306;-62
2022/03/12 07:04:06;;;;;;;15.43;10.33;;;;;;;-1.13;100.00;96709.53;5050693;27;101743;-62
2022/03/12 07:06:33;;;;;;;15.70;10.43;;;;;;;-1.16;100.00;96698.63;5050425;27;105332;-62
2022/03/12 07:09:01;;;;;;;12.67;9.63;;;;;;;-1.02;100.00;96703.94;5049525;27;105319;-62
2022/03/12 07:11:31;;;;;;;15.87;10.13;;;;;;;-0.89;100.00;96695.56;5051043;27;101972;-62
2022/03/12 07:13:59;;;;;;;16.07;10.13;;;;;;;-0.87;100.00;96704.00;5049981;27;104721;-62
2022/03/12 07:16:26;;;;;;;13.63;10.17;;;;;;;-0.89;100.00;96698.97;5049978;27;105572;-62
2022/03/12 07:18:54;;;;;;;12.93;9.53;;;;;;;-1.15;100.00;96695.84;5053639;27;101704;-62
2022/03/12 07:21:21;;;;;;;15.27;10.87;;;;;;;-0.89;100.00;96695.56;5050618;27;106799;-62
2022/03/12 07:23:49;;;;;;;15.63;11.20;;;;;;;-0.50;100.00;96697.06;5050273;27;101957;-62
2022/03/12 07:26:16;;;;;;;15.47;10.43;;;;;;;-0.48;100.00;96708.16;5050042;27;103787;-62
2022/03/12 07:28:44;;;;;;;14.30;10.13;;;;;;;-0.35;100.00;96703.16;5049123;27;105195;-62
2022/03/12 07:31:15;;;;;;;15.90;10.90;;;;;;;-0.43;100.00;96717.09;5050072;27;101808;-62
2022/03/12 07:33:41;;;;;;;15.10;10.60;;;;;;;-0.43;100.00;96713.69;5049579;27;105188;-62
2022/03/12 07:36:09;;;;;;;16.50;10.83;;;;;;;-0.28;100.00;96700.66;5048918;27;105379;-62
2022/03/12 07:38:36;;;;;;;13.30;10.53;;;;;;;-0.12;100.00;96702.16;5054408;27;101841;-62
2022/03/12 07:41:03;;;;;;;14.67;11.20;;;;;;;0.11;100.00;96697.69;5050118;27;102516;-62
2022/03/12 07:43:30;;;;;;;12.90;10.30;;;;;;;0.45;100.00;96699.78;5050910;27;101829;-62
2022/03/12 07:45:59;;;;;;;15.07;9.40;;;;;;;0.34;100.00;96695.81;5049040;27;106163;-62
2022/03/12 07:48:28;;;;;;;13.33;9.73;;;;;;;0.54;100.00;96696.06;5046109;27;102796;-62
2022/03/12 07:50:56;;;;;;;13.47;9.93;;;;;;;0.59;100.00;96698.97;5051979;27;101797;-62
2022/03/12 07:53:23;;;;;;;10.40;8.90;;;;;;;0.55;100.00;96700.34;5050239;27;103602;-62
2022/03/12 07:55:50;;;;;;;12.50;8.20;;;;;;;0.54;100.00;96704.75;5051380;27;101743;-62
2022/03/12 07:58:18;;;;;;;10.13;8.17;;;;;;;0.68;100.00;96695.28;5050482;27;101968;-62
2022/03/12 08:00:45;;;;;;;12.87;9.07;;;;;;;0.77;100.00;96691.56;5053202;27;106081;-62
2022/03/12 08:03:14;;;;;;;12.37;9.00;;;;;;;1.03;100.00;96703.16;5050597;27;101874;-62
2022/03/12 08:05:41;;;;;;;12.20;8.77;;;;;;;1.29;100.00;96694.78;5050483;27;105464;-62
2022/03/12 08:08:08;;;;;;;12.50;8.90;;;;;;;1.41;100.00;96698.53;5049732;27;104980;-62
2022/03/12 08:11:24;;;;;;;11.00;8.23;;;;;;;1.60;100.00;96693.47;5050280;27;101831;-62
2022/03/12 08:13:24;;;;;;;11.90;8.63;;;;;;;1.71;100.00;96689.56;5049898;27;103686;-62
2022/03/12 08:15:52;;;;;;;14.77;9.97;;;;;;;1.91;100.00;96693.97;5049027;27;105870;-62
2022/03/12 08:18:21;;;;;;;12.77;9.17;;;;;;;1.98;99.61;96694.03;5050506;27;101878;-62
2022/03/12 08:20:50;;;;;;;10.03;8.63;;;;;;;2.02;96.25;96698.69;5049494;27;105257;-62
2022/03/12 08:23:17;;;;;;;11.37;8.33;;;;;;;2.32;96.30;96694.91;5053866;27;102946;-62
2022/03/12 08:25:44;;;;;;;11.37;8.60;;;;;;;2.34;89.64;96692.88;5050211;27;105297;-62
2022/03/12 08:28:14;;;;;;;10.03;8.33;;;;;;;2.37;91.83;96682.03;5049307;27;105408;-62
2022/03/12 08:30:41;;;;;;;11.80;8.50;;;;;;;2.47;90.55;96681.66;5050179;27;101886;-62
2022/03/12 08:33:09;;;;;;;11.37;8.47;;;;;;;2.63;91.61;96686.63;5051778;27;102479;-62
2022/03/12 08:35:38;;;;;;;10.93;9.20;;;;;;;2.96;93.19;96682.31;5049458;27;105875;-62
2022/03/12 08:38:07;;;;;;;12.23;8.93;;;;;;;2.88;91.42;96692.97;5049967;27;102050;-62
2022/03/12 08:40:35;;;;;;;11.27;8.83;;;;;;;2.98;87.41;96690.81;5049820;27;104974;-62
2022/03/12 08:43:04;;;;;;;10.80;8.37;;;;;;;3.19;88.57;96690.69;5050725;27;102613;-62
2022/03/12 08:45:31;;;;;;;11.13;8.30;;;;;;;3.49;89.92;96684.13;5052889;27;101856;-62
2022/03/12 08:47:58;;;;;;;15.70;9.93;;;;;;;3.85;87.08;96679.31;5049176;27;105674;-62
2022/03/12 08:50:26;;;;;;;10.27;8.20;;;;;;;3.80;81.53;96681.72;5049702;27;101994;-62
2022/03/12 08:52:55;;;;;;;11.37;9.00;;;;;;;3.91;82.38;96687.22;5049154;27;105544;-62
2022/03/12 08:55:23;;;;;;;12.63;8.80;;;;;;;4.18;77.58;96677.47;5050425;27;102508;-62
2022/03/12 08:57:51;;;;;;;10.40;8.27;;;;;;;4.62;78.53;96673.16;5049500;27;102170;-62
2022/03/12 09:00:21;;;;;;;14.77;9.43;;;;;;;4.63;77.25;96669.50;5049429;27;104806;-62
2022/03/12 09:02:50;;;;;;;12.43;9.30;;;;;;;4.47;73.52;96669.94;5049045;27;105134;-62
2022/03/12 09:05:19;;;;;;;13.17;9.00;;;;;;;4.67;73.59;96681.25;5049065;27;102092;-62
2022/03/12 09:07:48;;;;;;;12.53;9.30;;;;;;;4.49;71.80;96669.75;5052161;27;104908;-62
2022/03/12 09:10:17;;;;;;;11.57;8.27;;;;;;;4.07;72.96;96678.09;5049060;27;101831;-62
2022/03/12 09:12:44;;;;;;;10.93;8.70;;;;;;;4.11;74.69;96674.88;5049192;27;105193;-62
2022/03/12 09:15:13;;;;;;;10.50;8.07;;;;;;;4.46;80.40;96675.41;5048819;27;105198;-62
2022/03/12 09:17:40;;;;;;;11.37;8.70;;;;;;;4.95;77.27;96668.63;5049182;27;102286;-62
2022/03/12 09:20:08;;;;;;;15.63;8.67;;;;;;;5.49;81.06;96665.50;5049434;27;105651;-62
2022/03/12 09:22:35;;;;;;;11.27;8.77;;;;;;;5.69;71.15;96661.75;5048322;27;105304;-62
2022/03/12 09:25:03;;;;;;;11.93;8.77;;;;;;;5.68;69.55;96664.59;5049063;27;101825;-62
2022/03/12 09:27:31;;;;;;;11.57;8.83;;;;;;;5.34;65.01;96667.63;5049298;27;104721;-62
2022/03/12 09:29:59;;;;;;;11.97;8.60;;;;;;;5.58;63.25;96661.59;5052104;27;101959;-62
2022/03/12 09:32:29;;;;;;;13.27;9.03;;;;;;;6.01;68.08;96670.47;5048668;27;105188;-61
2022/03/12 09:34:57;;;;;;;11.50;9.10;;;;;;;6.37;62.99;96665.28;5048448;27;105103;-62
2022/03/12 09:37:24;;;;;;;13.33;8.97;;;;;;;6.75;61.96;96664.09;5050688;27;101970;-62
2022/03/12 09:39:51;;;;;;;12.13;9.57;;;;;;;6.48;56.88;96664.56;5049148;27;105216;-62
2022/03/12 09:42:19;;;;;;;11.50;9.30;;;;;;;6.90;60.47;96663.72;5048534;27;105347;-62
2022/03/12 09:44:47;;;;;;;13.47;9.23;;;;;;;7.48;57.82;96665.63;5048513;27;101964;-62
2022/03/12 09:47:17;;;;;;;12.17;8.70;;;;;;;7.58;56.34;96667.75;5048994;27;105484;-62
2022/03/12 09:49:44;;;;;;;13.23;9.10;;;;;;;7.52;56.04;96660.72;5051738;27;105566;-62
2022/03/12 09:52:11;;;;;;;12.77;9.63;;;;;;;7.54;54.40;96666.59;5048502;27;105189;-62
2022/03/12 09:54:41;;;;;;;13.43;9.27;;;;;;;7.68;54.84;96660.09;5049206;27;103726;-62
2022/03/12 09:57:08;;;;;;;12.37;9.27;;;;;;;7.38;52.14;96654.81;5049145;27;101940;-62
2022/03/12 09:59:35;;;;;;;12.13;9.27;;;;;;;7.53;54.52;96654.41;5048950;27;105015;-61
2022/03/12 10:02:04;;;;;;;14.20;9.83;;;;;;;8.00;53.97;96648.19;5048178;27;105270;-62
2022/03/12 10:04:31;;;;;;;14.30;10.00;;;;;;;8.25;52.31;96649.66;5048636;27;101860;-62
2022/03/12 10:06:58;;;;;;;14.13;9.53;;;;;;;8.51;51.59;96643.09;5047731;27;105041;-62
2022/03/12 10:09:26;;;;;;;13.63;9.87;;;;;;;8.96;53.04;96646.72;5048018;27;105531;-62
2022/03/12 10:11:54;;;;;;;16.67;9.53;;;;;;;8.99;50.18;96643.63;5052271;27;101985;-62
2022/03/12 10:14:22;;;;;;;15.97;9.90;;;;;;;8.69;48.76;96637.66;5047948;27;105328;-62
2022/03/12 10:16:49;;;;;;;13.70;10.10;;;;;;;8.81;50.38;96635.78;5048694;27;101815;-62
2022/03/12 10:19:19;;;;;;;14.13;9.97;;;;;;;9.43;51.22;96634.94;5047615;27;106036;-61
2022/03/12 10:21:46;;;;;;;14.77;10.20;;;;;;;9.80;50.12;96622.84;5046712;27;105240;-62
2022/03/12 10:24:13;;;;;;;13.10;9.67;;;;;;;9.97;48.03;96626.34;5047236;27;101919;-61
2022/03/12 10:26:42;;;;;;;11.40;9.90;;;;;;;9.79;47.20;96624.72;5048472;27;105069;-61
2022/03/12 10:29:10;;;;;;;13.83;10.70;;;;;;;10.07;47.97;96615.91;5047834;27;105431;-61
2022/03/12 10:31:38;;;;;;;14.77;10.73;;;;;;;10.39;46.12;96625.72;5047010;27;102197;-61
2022/03/12 10:34:21;;;;;;;12.67;10.40;;;;;;;10.68;45.21;96623.78;5050357;27;103772;-61
2022/03/12 10:36:49;;;;;;;15.07;10.40;;;;;;;11.02;45.13;96619.97;5048825;27;102145;-61
2022/03/12 10:39:17;;;;;;;14.40;10.30;;;;;;;10.71;44.17;96617.94;5047340;27;103661;-61
2022/03/12 10:41:44;;;;;;;12.07;9.80;;;;;;;11.13;46.72;96617.16;5046277;27;104992;-61
2022/03/12 10:44:12;;;;;;;13.97;10.07;;;;;;;10.94;44.90;96617.72;5048170;27;101903;-61
2022/03/12 10:46:44;;;;;;;15.20;10.83;;;;;;;11.38;44.63;96612.13;5050540;27;105488;-61
2022/03/12 10:49:23;;;;;;;17.57;11.73;;;;;;;11.30;43.17;96609.13;5050245;27;103827;-61
2022/03/12 10:51:50;;;;;;;16.10;12.23;;;;;;;11.34;44.41;96607.56;5050214;27;101851;-61
2022/03/12 10:54:18;;;;;;;17.00;12.63;;;;;;;11.71;42.19;96598.66;5052408;27;102292;-61
2022/03/12 10:56:49;;;;;;;18.90;13.53;;;;;;;12.10;42.50;96594.75;5053555;27;105365;-61
2022/03/12 10:59:19;;;;;;;15.83;12.63;;;;;;;12.51;42.73;96598.50;5050530;27;105016;-61
2022/03/12 11:01:51;;;;;;;15.47;12.73;;;;;;;12.43;42.47;96596.34;5049798;27;105362;-61
2022/03/12 11:04:19;;;;;;;18.60;12.93;;;;;;;12.69;41.92;96592.75;5049879;27;101811;-61
2022/03/12 11:06:49;;;;;;;15.83;12.90;;;;;;;12.60;40.68;96591.66;5051411;27;102361;-61
2022/03/12 11:09:18;;;;;;;20.30;14.20;;;;;;;12.65;41.06;96589.00;5050978;27;102729;-62
2022/03/12 11:11:47;;;;;;;17.53;13.30;;;;;;;13.23;39.68;96583.44;5049733;27;101867;-61
2022/03/12 11:14:20;;;;;;;17.13;12.07;;;;;;;13.45;39.36;96584.03;5049481;27;105225;-62
2022/03/12 11:16:54;;;;;;;16.87;12.17;;;;;;;12.98;38.57;96573.44;5049926;27;105711;-62
2022/03/12 11:19:37;;;;;;;17.27;13.43;;;;;;;12.80;40.41;96581.09;5040347;27;102217;-62
2022/03/12 11:22:12;;;;;;;16.17;11.23;;;;;;;13.09;39.96;96585.78;5050745;27;101955;-62